AirNav   Phillips 66 Aviation Fuel
 
 910 users online  

NA86 Johnson Private Airstrip
Luverne, North Dakota, USA


FAA INFORMATION EFFECTIVE 20 JULY 2017

Location

FAA Identifier: NA86
Lat/Long: 47-19-59.9630N / 097-54-03.3510W
47-19.999383N / 097-54.055850W
47.3333231 / -97.9009308
(estimated)
Elevation: 1492 ft. / 455 m (estimated)
Variation: 07E (1985)
From city: 4 miles NE of LUVERNE, ND
Time zone: UTC -5 (UTC -6 during Standard Time)
Zip code: 58056

Airport Operations

Airport use: Private use. Permission required prior to landing
Activation date: 08/1982
Control tower: no
ARTCC: MINNEAPOLIS CENTER
FSS: GRAND FORKS FLIGHT SERVICE STATION
Attendance: UNATNDD
Wind indicator: yes
Segmented circle: no

Airport Communications

WX AWOS-3 at S32 (10 nm NW): 118.750 (701-797-2566)

Nearby radio navigation aids

VOR radial/distance  VOR name  Freq  Var
JMSr043/39.8JAMESTOWN VOR/DME114.5010E

Airport Services

Fuel available: FUEL NOT FOR SALE-EMERGENCY USE ONLY.

Runway Information

Runway 17/35

Dimensions: 4100 x 50 ft. / 1250 x 15 m
Surface: turf
RUNWAY 17  RUNWAY 35
Traffic pattern: leftleft
Obstructions: 30 ft. trees, 50 ft. from runway
AND BUILDING.
none

Airport Ownership and Management from official FAA records

Ownership: Privately-owned
Owner: VERNON L. JOHNSON
RT. 2 BOX 60
LUVERNE, ND 58056
Phone 701-945-2607
Manager: VERNON L. JOHNSON
RT. 2 BOX 60
LUVERNE, ND 58056
Phone 701-945-2607

Airport Operational Statistics

Aircraft based on the field: 1
Single engine airplanes: 1
    

Instrument Procedures

There are no published instrument procedures at NA86.

Some nearby airports with instrument procedures:

S32 - Cooperstown Municipal Airport (10 nm NW)
KBAC - Barnes County Municipal Airport (24 nm S)
4V4 - Northwood Municipal Airport-Vince Field (27 nm NE)
3H4 - Hillsboro Municipal Airport (34 nm E)
KJMS - Jamestown Regional Airport (40 nm SW)
 
Loc | Ops | Rwys | IFR | FBO | Links
Com | Nav | Svcs | Stats | Notes


 
Area around NA86 (Johnson Private Airstrip)
 
Road maps at: MapQuest Bing Google
 
Aerial photo
No photo
 
Sectional chart

 
Airport distance calculator
Flying to Johnson Private Airstrip? Find the distance to fly.

From to NA86

Sunrise and sunset
Times for 23-Jul-2017
 Local
(UTC-5)
 Zulu
(UTC)
Morning civil twilight05:2310:23
Sunrise06:0011:00
Sunset21:1602:16
Evening civil twilight21:5302:53

Current date and time
Zulu (UTC)  24-Jul-2017 02:14:25
Local (UTC-5)  23-Jul-2017 21:14:25
 
METAR
KS32 
10nm NW 
240155Z AUTO 11005KT 10SM CLR 21/18 A2999 RMK AO2
TAF
KJMS 
39nm SW 
231730Z 2318/2418 35009KT P6SM SCT050 FM232300 04007KT P6SM SKC FM240200 10005KT P6SM SKC FM240800 16005KT P6SM FEW090 FEW250 FM241300 17009KT P6SM FEW090 FEW250
KRDR 
43nm NE 
231804Z 2318/2424 03009KT 9999 FEW020 QNH2995INS WND 09009KT AFT 2400 BECMG 2414/2415 18012G18KT 9999 FEW110 QNH2983INS BECMG 2423/2424 16009KT 9999 FEW100 QNH2983INS TX26/2321Z TN15/2410Z
KGFK 
47nm NE 
231720Z 2318/2418 01007KT P6SM BKN035 FM231900 02007KT P6SM SCT070 FM232100 05006KT P6SM FEW150 FM240200 VRB05KT P6SM FEW250 FM241500 17010G18KT P6SM FEW250
NOTAMs
Click for the latest NOTAMs
NOTAMs are issued by the DoD/FAA and will open in a separate window not controlled by AirNav.

 

 
 

Would you like to see your business listed on this page?

 If your business provides an interesting product or service to pilots, flight crews, aircraft, or users of the Johnson Private Airstrip, you should consider listing it here.  To start the listing process, click on the button below
 
Add a business
 

Other Pages about Johnson Private Airstrip

Update a link
 
Copyright © AirNav, LLC. All rights reserved. Privacy Policy  Contact